ソウル/仁川 の空港の天気 - METARとTAF

仁川国際空港 ( RKSI / ICN ) - 韓国 仁川広域市 (ソウル特別市近郊)
飛行場実況気象(Metar)
観測時間05/28 19:30 KST (05/28 10:30 UTC)
風向・風速南西 4m/s
視程10km以上
天気現象
なし
気温20℃
湿度78%
気圧1006hPa
METARRKSI 281030Z 22007KT 170V250 CAVOK 20/16 Q1006 NOSIG
過去の天気等 Google飛行場航空写真 Wunderground天気予報

過去48時間のMETAR

飛行場予報(TAF)
発表時間: 5/28 14:00 KST (5/28 05:00 UTC)
予報対象時間: 28日15時 KST ~ 29日21時 KST
風向・風速南南西 7m/s 瞬間風速 13m/s
視程6000m
なし
28日22時 KST ~ 28日24時 KST に徐々に
風向・風速南南東 3m/s
視程3500m
天気現象もや
全天の4割程度の雲 雲底高度 300m
29日3時 KST ~ 29日5時 KST に一時的に
風向・風速南東 3m/s
視程800m
天気現象
全天の8割程度の雲 雲底高度 150m
29日6時 KST ~ 29日8時 KST に徐々に
視程6000m
天気現象運行に影響にある天気現象が終了
少しの雲 雲底高度 300m
全天の8割程度の雲 雲底高度 610m
29日10時 KST ~ 29日12時 KST に徐々に
風向・風速西南西 4m/s
全天の4割程度の雲 雲底高度 910m
29日18時 KST ~ 29日20時 KST に徐々に
風向・風速東北東 3m/s
全天の8割程度の雲 雲底高度 1070m
TAF RKSI 280500Z 2806/2912 20013G25KT 6000 NSC TN17/2820Z TX24/2905Z
BECMG 2813/2815 16006KT 3500 BR SCT010
TEMPO 2818/2820 13006KT 0800 FG BKN005
BECMG 2821/2823 6000 NSW FEW010 BKN020
BECMG 2901/2903 25008KT SCT030
BECMG 2909/2911 07006KT BKN035